Time;durP1;ratioP1;P1;durP2;ratioP2;P2;SDS_P1;SDS_P2;PMS_P1;PMS_P2;Temp;Humidity;BMP_temperature;BMP_pressure;BME280_temperature;BME280_humidity;BME280_pressure;Samples;Min_cycle;Max_cycle;Signal;HPM_P1;HPM_P2
2021/05/10 00:01:50;;;;;;;4.15;1.70;;;;;;;;;;4994383;28;20025;-70
2021/05/10 00:04:17;;;;;;;6.20;1.95;;;;;;;;;;4992280;28;20100;-69
2021/05/10 00:06:44;;;;;;;5.07;1.95;;;;;;;;;;4992842;28;20026;-69
2021/05/10 00:09:11;;;;;;;7.32;1.95;;;;;;;;;;4992438;28;20023;-70
2021/05/10 00:11:38;;;;;;;3.83;1.85;;;;;;;;;;4992689;28;20113;-69
2021/05/10 00:14:06;;;;;;;4.80;2.05;;;;;;;;;;4991850;28;20125;-70
2021/05/10 00:16:33;;;;;;;6.30;1.80;;;;;;;;;;5008637;28;20447;-70
2021/05/10 00:19:01;;;;;;;9.65;2.15;;;;;;;;;;5005374;28;20045;-69
2021/05/10 00:21:28;;;;;;;3.28;1.60;;;;;;;;;;4988178;28;20027;-68
2021/05/10 00:23:55;;;;;;;3.38;1.75;;;;;;;;;;4989835;28;20037;-69
2021/05/10 00:26:22;;;;;;;2.90;1.00;;;;;;;;;;4992737;28;20034;-69
2021/05/10 00:28:49;;;;;;;5.85;1.80;;;;;;;;;;4991081;28;20042;-68
2021/05/10 00:31:17;;;;;;;2.88;1.33;;;;;;;;;;4992444;28;20057;-68
2021/05/10 00:33:44;;;;;;;4.82;1.75;;;;;;;;;;4989410;28;20029;-69
2021/05/10 00:36:11;;;;;;;4.07;1.77;;;;;;;;;;4989907;28;20021;-69
2021/05/10 00:38:38;;;;;;;5.80;1.40;;;;;;;;;;4989146;28;20125;-69
2021/05/10 00:41:05;;;;;;;5.47;1.40;;;;;;;;;;4990126;28;20062;-69
2021/05/10 00:43:32;;;;;;;2.15;0.98;;;;;;;;;;4988156;28;20081;-69
2021/05/10 00:45:59;;;;;;;3.95;1.42;;;;;;;;;;4989569;28;20034;-69
2021/05/10 00:48:26;;;;;;;2.72;1.35;;;;;;;;;;4988324;28;20031;-69
2021/05/10 00:50:54;;;;;;;3.63;1.00;;;;;;;;;;5003826;28;20030;-70
2021/05/10 00:53:21;;;;;;;2.72;0.85;;;;;;;;;;5004200;28;20554;-69
2021/05/10 00:55:48;;;;;;;5.63;1.30;;;;;;;;;;4991390;28;20018;-69
2021/05/10 00:58:15;;;;;;;2.65;0.90;;;;;;;;;;4989249;28;20044;-69
2021/05/10 01:00:42;;;;;;;3.20;0.80;;;;;;;;;;4987423;28;20030;-69
2021/05/10 01:03:10;;;;;;;2.05;0.70;;;;;;;;;;4991767;28;20061;-68
2021/05/10 01:05:37;;;;;;;2.47;1.00;;;;;;;;;;4988429;28;20636;-69
2021/05/10 01:08:05;;;;;;;2.97;0.80;;;;;;;;;;4990270;28;20468;-69
2021/05/10 01:10:32;;;;;;;4.05;0.80;;;;;;;;;;4988621;28;20034;-69
2021/05/10 01:12:59;;;;;;;2.03;0.68;;;;;;;;;;4988332;28;20029;-68
2021/05/10 01:15:27;;;;;;;2.30;0.55;;;;;;;;;;4997137;28;20050;-69
2021/05/10 01:17:54;;;;;;;1.75;0.55;;;;;;;;;;4988608;28;20782;-68
2021/05/10 01:20:22;;;;;;;2.90;0.60;;;;;;;;;;4991697;28;20487;-68
2021/05/10 01:22:53;;;;;;;4.53;1.05;;;;;;;;;;4987438;28;20113;-70
2021/05/10 01:25:22;;;;;;;1.00;0.57;;;;;;;;;;4990759;28;20030;-69
2021/05/10 01:27:49;;;;;;;1.95;0.65;;;;;;;;;;4985568;28;20483;-68
2021/05/10 01:30:21;;;;;;;1.67;0.82;;;;;;;;;;4990134;28;20038;-68
2021/05/10 01:32:49;;;;;;;1.40;0.40;;;;;;;;;;4993826;28;20056;-68
2021/05/10 01:35:17;;;;;;;1.80;0.40;;;;;;;;;;5007786;28;20491;-68
2021/05/10 01:37:45;;;;;;;2.30;0.63;;;;;;;;;;4996840;28;20042;-68
2021/05/10 01:40:12;;;;;;;4.00;0.60;;;;;;;;;;5006685;28;20034;-68
2021/05/10 01:42:39;;;;;;;1.35;0.40;;;;;;;;;;5001221;28;20398;-68
2021/05/10 01:45:08;;;;;;;2.03;0.50;;;;;;;;;;4994491;28;20368;-68
2021/05/10 01:47:35;;;;;;;3.78;0.63;;;;;;;;;;5001106;28;20030;-68
2021/05/10 01:50:12;;;;;;;3.67;0.43;;;;;;;;;;4992592;28;20637;-68
2021/05/10 01:52:40;;;;;;;7.75;0.90;;;;;;;;;;4996184;28;20372;-68
2021/05/10 01:55:07;;;;;;;4.95;0.98;;;;;;;;;;5009099;28;20138;-68
2021/05/10 01:57:35;;;;;;;1.50;0.35;;;;;;;;;;4999888;28;20030;-68
2021/05/10 02:00:02;;;;;;;2.75;0.40;;;;;;;;;;5008069;28;20034;-68
2021/05/10 02:02:29;;;;;;;5.45;1.83;;;;;;;;;;4996812;28;20782;-69
2021/05/10 02:05:12;;;;;;;2.03;0.38;;;;;;;;;;4996172;28;20027;-69
2021/05/10 02:07:45;;;;;;;1.63;0.40;;;;;;;;;;4997406;28;20387;-68
2021/05/10 02:10:14;;;;;;;0.70;0.30;;;;;;;;;;4995839;28;20030;-69
2021/05/10 02:12:41;;;;;;;1.70;1.02;;;;;;;;;;4996798;28;20149;-69
2021/05/10 02:15:10;;;;;;;3.50;1.42;;;;;;;;;;4995671;28;20483;-68
2021/05/10 02:17:38;;;;;;;2.45;0.77;;;;;;;;;;5011916;28;20088;-68
2021/05/10 02:20:07;;;;;;;2.00;0.73;;;;;;;;;;5011379;28;20048;-69
2021/05/10 02:22:34;;;;;;;2.13;0.50;;;;;;;;;;5019020;28;20491;-68
2021/05/10 02:25:01;;;;;;;2.90;0.50;;;;;;;;;;5012715;28;20026;-68
2021/05/10 02:27:28;;;;;;;2.50;0.63;;;;;;;;;;5012744;28;20092;-68
2021/05/10 02:29:55;;;;;;;2.72;1.17;;;;;;;;;;5009927;28;20442;-68
2021/05/10 02:32:22;;;;;;;3.38;0.68;;;;;;;;;;5014885;28;20513;-68
2021/05/10 02:34:50;;;;;;;3.53;0.50;;;;;;;;;;4998081;28;20503;-68
2021/05/10 02:37:18;;;;;;;2.92;0.50;;;;;;;;;;4997467;28;20037;-68
2021/05/10 02:39:45;;;;;;;2.05;0.75;;;;;;;;;;5015683;28;20072;-68
2021/05/10 02:42:12;;;;;;;3.00;0.60;;;;;;;;;;5015427;28;20027;-69
2021/05/10 02:44:40;;;;;;;2.38;0.50;;;;;;;;;;5016862;28;20422;-69
2021/05/10 02:47:07;;;;;;;1.90;0.80;;;;;;;;;;4995258;28;20033;-68
2021/05/10 02:49:34;;;;;;;4.50;0.60;;;;;;;;;;5010862;28;20041;-69
2021/05/10 02:52:01;;;;;;;2.83;0.68;;;;;;;;;;4998073;28;20030;-69
2021/05/10 02:54:28;;;;;;;2.75;0.55;;;;;;;;;;5011025;28;20152;-69
2021/05/10 02:56:56;;;;;;;3.35;0.50;;;;;;;;;;4998463;28;20038;-69
2021/05/10 02:59:23;;;;;;;1.30;0.63;;;;;;;;;;5015399;28;20125;-69
2021/05/10 03:01:50;;;;;;;1.40;0.40;;;;;;;;;;5007404;28;20116;-70
2021/05/10 03:04:17;;;;;;;2.88;0.68;;;;;;;;;;5017411;28;20079;-69
2021/05/10 03:06:44;;;;;;;1.73;0.50;;;;;;;;;;4990764;28;20076;-68
2021/05/10 03:09:11;;;;;;;3.40;0.60;;;;;;;;;;5023685;28;20044;-69
2021/05/10 03:11:38;;;;;;;3.08;0.65;;;;;;;;;;4997550;28;20112;-68
2021/05/10 03:14:05;;;;;;;2.13;0.57;;;;;;;;;;5017652;28;20084;-68
2021/05/10 03:16:33;;;;;;;1.65;0.60;;;;;;;;;;5010431;28;20049;-68
2021/05/10 03:19:02;;;;;;;2.20;0.60;;;;;;;;;;5021636;28;20479;-68
2021/05/10 03:21:29;;;;;;;6.63;0.60;;;;;;;;;;5005884;28;20061;-68
2021/05/10 03:23:58;;;;;;;1.40;0.50;;;;;;;;;;5013587;28;20017;-69
2021/05/10 03:26:25;;;;;;;4.47;0.85;;;;;;;;;;5014425;28;20029;-68
2021/05/10 03:28:52;;;;;;;3.25;0.50;;;;;;;;;;5016363;28;20029;-68
2021/05/10 03:31:19;;;;;;;1.52;0.43;;;;;;;;;;4996640;28;20109;-68
2021/05/10 03:33:46;;;;;;;3.40;0.55;;;;;;;;;;4998809;28;20029;-68
2021/05/10 03:36:13;;;;;;;4.88;0.50;;;;;;;;;;4994638;28;20030;-68
2021/05/10 03:38:41;;;;;;;2.42;0.50;;;;;;;;;;5011017;28;20132;-67
2021/05/10 03:41:08;;;;;;;1.77;0.30;;;;;;;;;;5015515;28;20491;-68
2021/05/10 03:43:35;;;;;;;2.13;0.50;;;;;;;;;;4997864;28;20087;-70
2021/05/10 03:46:02;;;;;;;2.28;0.70;;;;;;;;;;5011233;28;20052;-69
2021/05/10 03:48:29;;;;;;;2.40;0.50;;;;;;;;;;5001994;28;20447;-69
2021/05/10 03:50:57;;;;;;;2.70;0.60;;;;;;;;;;5012644;28;20036;-69
2021/05/10 03:53:24;;;;;;;3.38;0.60;;;;;;;;;;5016000;28;20025;-69
2021/05/10 03:55:51;;;;;;;2.30;0.50;;;;;;;;;;5011718;28;20026;-69
2021/05/10 03:58:19;;;;;;;2.75;0.40;;;;;;;;;;5016240;28;20117;-69
2021/05/10 04:00:46;;;;;;;4.53;0.50;;;;;;;;;;5013309;28;20022;-69
2021/05/10 04:03:15;;;;;;;2.97;0.38;;;;;;;;;;4997743;28;20025;-69
2021/05/10 04:13:57;;;;;;;8.52;1.15;;;;;;;;;;5000845;28;20099;-70
2021/05/10 04:16:24;;;;;;;1.90;0.30;;;;;;;;;;4996905;28;20074;-72
2021/05/10 04:18:51;;;;;;;2.20;0.30;;;;;;;;;;5002892;28;20037;-69
2021/05/10 04:21:19;;;;;;;1.23;0.50;;;;;;;;;;5014121;28;20020;-70
2021/05/10 04:23:46;;;;;;;0.85;0.60;;;;;;;;;;5018185;28;20029;-70
2021/05/10 04:26:13;;;;;;;2.67;0.50;;;;;;;;;;5012791;28;20034;-70
2021/05/10 04:28:41;;;;;;;1.40;0.30;;;;;;;;;;5015062;28;20033;-70
2021/05/10 04:31:08;;;;;;;0.88;0.30;;;;;;;;;;4992335;28;20042;-70
2021/05/10 04:33:35;;;;;;;0.98;0.30;;;;;;;;;;4992545;28;20046;-71
2021/05/10 04:36:03;;;;;;;0.68;0.30;;;;;;;;;;4987532;28;20030;-70
2021/05/10 04:38:30;;;;;;;0.93;0.20;;;;;;;;;;5006007;28;20032;-69
2021/05/10 04:41:00;;;;;;;0.75;0.20;;;;;;;;;;4982665;28;20046;-70
2021/05/10 04:43:27;;;;;;;0.85;0.30;;;;;;;;;;4978396;28;20041;-71
2021/05/10 04:45:59;;;;;;;1.55;0.30;;;;;;;;;;5016763;28;20034;-70
2021/05/10 04:48:26;;;;;;;1.23;0.50;;;;;;;;;;5009852;28;20030;-70
2021/05/10 04:50:53;;;;;;;2.50;0.73;;;;;;;;;;4999112;28;20112;-70
2021/05/10 04:53:20;;;;;;;4.75;1.42;;;;;;;;;;5000233;28;20034;-70
2021/05/10 04:55:47;;;;;;;2.72;1.20;;;;;;;;;;4996620;28;20030;-72
2021/05/10 04:58:14;;;;;;;2.00;0.32;;;;;;;;;;4989535;28;20045;-72
2021/05/10 05:00:42;;;;;;;0.80;0.43;;;;;;;;;;5001755;28;20401;-69
2021/05/10 05:03:09;;;;;;;1.08;0.20;;;;;;;;;;5007732;28;20441;-71
2021/05/10 05:05:36;;;;;;;1.30;0.22;;;;;;;;;;5017327;28;20021;-70
2021/05/10 05:08:03;;;;;;;1.90;0.30;;;;;;;;;;4994278;28;20027;-70
2021/05/10 05:10:30;;;;;;;1.30;0.40;;;;;;;;;;4988236;28;20042;-70
2021/05/10 05:12:57;;;;;;;1.60;0.43;;;;;;;;;;5011901;28;20072;-70
2021/05/10 05:15:25;;;;;;;0.52;0.20;;;;;;;;;;5012952;28;20050;-71
2021/05/10 05:17:52;;;;;;;0.70;0.30;;;;;;;;;;4993180;28;20046;-70
2021/05/10 05:20:19;;;;;;;1.58;0.40;;;;;;;;;;5004098;28;20042;-70
2021/05/10 05:22:46;;;;;;;1.17;0.40;;;;;;;;;;5010932;28;20033;-70
2021/05/10 05:25:14;;;;;;;2.10;0.47;;;;;;;;;;4978336;28;20043;-69
2021/05/10 05:27:41;;;;;;;0.63;0.10;;;;;;;;;;5011736;28;20057;-69
2021/05/10 05:30:10;;;;;;;2.85;0.20;;;;;;;;;;5025236;28;20093;-70
2021/05/10 05:32:38;;;;;;;0.47;0.20;;;;;;;;;;4992116;28;20092;-69
2021/05/10 05:35:05;;;;;;;1.70;0.22;;;;;;;;;;5010563;28;20038;-70
2021/05/10 05:37:32;;;;;;;0.40;0.10;;;;;;;;;;5009942;28;20026;-69
2021/05/10 05:39:59;;;;;;;2.33;0.30;;;;;;;;;;5012076;28;20042;-70
2021/05/10 05:42:27;;;;;;;1.58;0.20;;;;;;;;;;5011686;28;20382;-70
2021/05/10 05:44:54;;;;;;;3.33;0.30;;;;;;;;;;5009337;28;20022;-70
2021/05/10 05:47:25;;;;;;;1.20;0.45;;;;;;;;;;5015498;28;20053;-69
2021/05/10 05:49:55;;;;;;;0.40;0.15;;;;;;;;;;5009811;28;20029;-69
2021/05/10 05:52:22;;;;;;;0.38;0.10;;;;;;;;;;5011495;28;20417;-68
2021/05/10 05:54:51;;;;;;;2.00;0.20;;;;;;;;;;5011217;28;20061;-69
2021/05/10 05:57:18;;;;;;;0.98;0.20;;;;;;;;;;4982152;28;20080;-67
2021/05/10 05:59:45;;;;;;;0.93;0.20;;;;;;;;;;5007371;28;20063;-68
2021/05/10 06:02:12;;;;;;;0.17;0.10;;;;;;;;;;5006444;28;20021;-69
2021/05/10 06:04:40;;;;;;;0.90;0.10;;;;;;;;;;5008073;28;20017;-68
2021/05/10 06:07:07;;;;;;;1.30;0.10;;;;;;;;;;5010322;28;20101;-68
2021/05/10 06:09:34;;;;;;;2.70;0.30;;;;;;;;;;4996123;28;20049;-68
2021/05/10 06:12:01;;;;;;;1.20;0.65;;;;;;;;;;5005849;28;20045;-69
2021/05/10 06:14:28;;;;;;;0.85;0.30;;;;;;;;;;5004349;28;20046;-69
2021/05/10 06:16:55;;;;;;;0.60;0.20;;;;;;;;;;5005224;28;20034;-69
2021/05/10 06:19:22;;;;;;;1.08;0.20;;;;;;;;;;5003623;28;20038;-69
2021/05/10 06:21:50;;;;;;;2.15;0.30;;;;;;;;;;5015037;28;20034;-69
2021/05/10 06:24:18;;;;;;;3.03;0.52;;;;;;;;;;5013655;28;20106;-69
2021/05/10 06:26:47;;;;;;;2.30;0.30;;;;;;;;;;5014981;28;20025;-70
2021/05/10 06:29:14;;;;;;;1.90;0.20;;;;;;;;;;5010708;28;20026;-69
2021/05/10 06:31:41;;;;;;;0.82;0.20;;;;;;;;;;5013214;28;20421;-69
2021/05/10 06:34:08;;;;;;;1.08;0.30;;;;;;;;;;5016873;28;20026;-70
2021/05/10 06:36:35;;;;;;;1.48;0.55;;;;;;;;;;4992132;28;20486;-69
2021/05/10 06:39:02;;;;;;;1.25;0.22;;;;;;;;;;5016875;28;20164;-69
2021/05/10 06:41:29;;;;;;;1.60;0.35;;;;;;;;;;5014035;28;20096;-69
2021/05/10 06:43:56;;;;;;;3.25;0.50;;;;;;;;;;5014992;28;20033;-69
2021/05/10 06:46:24;;;;;;;2.70;0.30;;;;;;;;;;5003321;28;20029;-69
2021/05/10 06:48:51;;;;;;;1.20;0.28;;;;;;;;;;4997721;28;20030;-68
2021/05/10 06:51:18;;;;;;;2.65;0.50;;;;;;;;;;5013471;28;20034;-68
2021/05/10 06:53:46;;;;;;;0.95;0.28;;;;;;;;;;5004511;28;20441;-69
2021/05/10 06:56:13;;;;;;;0.52;0.25;;;;;;;;;;5015743;28;20100;-69
2021/05/10 06:58:40;;;;;;;0.95;0.40;;;;;;;;;;5013922;28;20150;-69
2021/05/10 07:01:07;;;;;;;1.25;0.68;;;;;;;;;;5014692;28;20026;-69
2021/05/10 07:03:34;;;;;;;1.00;0.63;;;;;;;;;;5018470;28;20422;-69
2021/05/10 07:06:01;;;;;;;2.42;0.30;;;;;;;;;;5017828;28;20061;-69
2021/05/10 07:08:29;;;;;;;0.77;0.30;;;;;;;;;;5018394;28;20029;-69
2021/05/10 07:10:56;;;;;;;0.95;0.35;;;;;;;;;;5023443;28;20502;-68
2021/05/10 07:13:23;;;;;;;1.42;0.30;;;;;;;;;;5013076;28;20025;-68
2021/05/10 07:15:50;;;;;;;1.42;0.30;;;;;;;;;;5014723;28;20042;-68
2021/05/10 07:18:18;;;;;;;0.93;0.50;;;;;;;;;;5012313;28;20065;-68
2021/05/10 07:20:46;;;;;;;2.92;0.47;;;;;;;;;;5012858;28;20025;-68
2021/05/10 07:23:14;;;;;;;2.15;0.50;;;;;;;;;;5014735;28;20017;-69
2021/05/10 07:25:42;;;;;;;3.03;0.52;;;;;;;;;;5015402;28;20076;-68
2021/05/10 07:28:10;;;;;;;3.28;0.60;;;;;;;;;;5007654;28;20449;-69
2021/05/10 07:30:38;;;;;;;4.57;0.90;;;;;;;;;;4975654;28;20034;-69
2021/05/10 07:33:05;;;;;;;3.95;0.60;;;;;;;;;;4978633;28;20515;-69
2021/05/10 07:35:32;;;;;;;2.65;1.00;;;;;;;;;;4978176;28;20076;-69
2021/05/10 07:37:59;;;;;;;2.63;0.90;;;;;;;;;;4996282;28;20037;-69
2021/05/10 07:40:28;;;;;;;2.83;1.13;;;;;;;;;;4995379;28;20037;-69
2021/05/10 07:42:55;;;;;;;1.83;0.50;;;;;;;;;;4987925;28;20037;-69
2021/05/10 07:45:22;;;;;;;1.88;0.40;;;;;;;;;;4996677;28;20107;-69
2021/05/10 07:47:52;;;;;;;3.00;0.57;;;;;;;;;;4995098;28;20109;-68
2021/05/10 07:50:20;;;;;;;3.03;0.60;;;;;;;;;;5034191;28;20099;-69
2021/05/10 07:52:48;;;;;;;1.27;0.38;;;;;;;;;;5012931;28;20025;-69
2021/05/10 07:55:15;;;;;;;1.20;0.50;;;;;;;;;;5011058;28;20029;-69
2021/05/10 07:57:42;;;;;;;2.80;1.02;;;;;;;;;;4994946;28;20116;-69
2021/05/10 08:00:13;;;;;;;3.53;0.70;;;;;;;;;;5032348;28;20025;-69
2021/05/10 08:02:42;;;;;;;2.10;0.70;;;;;;;;;;4994458;28;20023;-69
2021/05/10 08:05:10;;;;;;;4.72;1.45;;;;;;;;;;4996046;28;20419;-68
2021/05/10 08:07:38;;;;;;;1.40;0.50;;;;;;;;;;4991761;28;20065;-68
2021/05/10 08:10:06;;;;;;;2.90;0.90;;;;;;;;;;5014480;28;20083;-69
2021/05/10 08:12:33;;;;;;;2.72;0.77;;;;;;;;;;5015587;28;20026;-69
2021/05/10 08:15:00;;;;;;;3.05;0.93;;;;;;;;;;5002137;28;20038;-69
2021/05/10 08:17:29;;;;;;;4.40;1.10;;;;;;;;;;4997164;28;20022;-69
2021/05/10 08:19:57;;;;;;;4.03;1.63;;;;;;;;;;5019471;28;20076;-69
2021/05/10 08:22:24;;;;;;;4.32;1.38;;;;;;;;;;4995965;28;20026;-68
2021/05/10 08:24:51;;;;;;;3.90;1.25;;;;;;;;;;5028506;28;20037;-69
2021/05/10 08:27:18;;;;;;;3.80;1.45;;;;;;;;;;5033050;28;20029;-69
2021/05/10 08:29:45;;;;;;;6.80;1.98;;;;;;;;;;5029165;28;20033;-68
2021/05/10 08:32:12;;;;;;;4.97;1.40;;;;;;;;;;5020495;28;20034;-68
2021/05/10 08:34:39;;;;;;;4.30;1.52;;;;;;;;;;5022354;28;20506;-68
2021/05/10 08:37:06;;;;;;;7.20;2.55;;;;;;;;;;5013480;28;20053;-68
2021/05/10 08:39:34;;;;;;;3.55;1.45;;;;;;;;;;5026024;28;20034;-69
2021/05/10 08:42:01;;;;;;;6.38;1.90;;;;;;;;;;5015384;28;20034;-69
2021/05/10 08:44:28;;;;;;;6.65;2.33;;;;;;;;;;5012121;28;20485;-69
2021/05/10 08:46:55;;;;;;;3.58;0.98;;;;;;;;;;5033067;28;20030;-68
2021/05/10 08:49:22;;;;;;;3.80;1.60;;;;;;;;;;4992737;28;20030;-68
2021/05/10 08:51:49;;;;;;;3.63;1.17;;;;;;;;;;4992501;28;20545;-68
2021/05/10 08:54:18;;;;;;;2.83;1.02;;;;;;;;;;5006316;28;20033;-69
2021/05/10 08:56:45;;;;;;;3.70;0.90;;;;;;;;;;5032935;28;20021;-69
2021/05/10 08:59:13;;;;;;;2.25;1.08;;;;;;;;;;5003215;28;20120;-68
2021/05/10 09:01:47;;;;;;;2.60;1.45;;;;;;;;;;5020886;28;20021;-68
2021/05/10 09:04:15;;;;;;;6.05;2.00;;;;;;;;;;4975752;28;20034;-68
2021/05/10 09:06:42;;;;;;;6.72;1.55;;;;;;;;;;4975602;28;20031;-68
2021/05/10 09:09:11;;;;;;;4.93;1.70;;;;;;;;;;5015579;28;20104;-68
2021/05/10 09:11:58;;;;;;;5.35;1.42;;;;;;;;;;5014421;28;20064;-68
2021/05/10 09:14:35;;;;;;;3.97;1.58;;;;;;;;;;5005510;28;20483;-68
2021/05/10 09:17:02;;;;;;;5.25;1.40;;;;;;;;;;4993246;28;20517;-68
2021/05/10 09:19:46;;;;;;;4.50;1.27;;;;;;;;;;5007998;28;20108;-68
2021/05/10 09:22:13;;;;;;;5.30;1.33;;;;;;;;;;5006497;28;20054;-68
2021/05/10 09:24:47;;;;;;;6.22;1.85;;;;;;;;;;4998794;28;20034;-68
2021/05/10 09:27:13;;;;;;;;;;;;;;;;;;5013037;28;20033;-68
2021/05/10 09:29:40;;;;;;;2.00;1.20;;;;;;;;;;5026091;28;19996;-68
2021/05/10 09:32:07;;;;;;;9.52;2.25;;;;;;;;;;5028504;28;20036;-68
2021/05/10 09:34:35;;;;;;;6.65;1.88;;;;;;;;;;5021664;28;20030;-68
2021/05/10 09:37:03;;;;;;;6.40;2.30;;;;;;;;;;4994166;28;20037;-68
2021/05/10 09:39:35;;;;;;;10.40;2.78;;;;;;;;;;5007345;28;20041;-68
2021/05/10 09:42:05;;;;;;;5.32;2.20;;;;;;;;;;5013684;28;20036;-68
2021/05/10 09:44:46;;;;;;;5.35;1.65;;;;;;;;;;5008152;28;20038;-68
2021/05/10 09:47:14;;;;;;;3.35;1.15;;;;;;;;;;5014601;28;20136;-68
2021/05/10 09:49:51;;;;;;;3.95;1.40;;;;;;;;;;5028313;28;20033;-68
2021/05/10 09:52:25;;;;;;;3.58;1.20;;;;;;;;;;5035897;28;20116;-68
2021/05/10 09:55:00;;;;;;;4.50;1.20;;;;;;;;;;5032547;28;20034;-69
2021/05/10 09:57:28;;;;;;;4.18;1.25;;;;;;;;;;5029591;28;20019;-68
2021/05/10 10:00:13;;;;;;;3.00;1.25;;;;;;;;;;5015675;28;20094;-68
2021/05/10 10:02:40;;;;;;;3.53;1.52;;;;;;;;;;4997226;28;20022;-68
2021/05/10 10:05:09;;;;;;;6.03;2.03;;;;;;;;;;5034717;28;20105;-68
2021/05/10 10:07:39;;;;;;;2.97;1.30;;;;;;;;;;5034914;28;20021;-68
2021/05/10 10:10:07;;;;;;;6.28;1.75;;;;;;;;;;5034282;28;20036;-69
2021/05/10 10:12:34;;;;;;;5.55;2.08;;;;;;;;;;5024847;28;20479;-68
2021/05/10 10:15:01;;;;;;;6.10;1.92;;;;;;;;;;4981182;28;20046;-68
2021/05/10 10:17:29;;;;;;;4.40;1.48;;;;;;;;;;4989887;28;20479;-68
2021/05/10 10:19:56;;;;;;;5.97;1.95;;;;;;;;;;5031908;28;20136;-68
2021/05/10 10:22:24;;;;;;;4.50;1.38;;;;;;;;;;5035929;28;20021;-68
2021/05/10 10:24:51;;;;;;;4.25;1.27;;;;;;;;;;5031973;28;20065;-68
2021/05/10 10:27:19;;;;;;;3.25;1.40;;;;;;;;;;5035489;28;20033;-68
2021/05/10 10:29:46;;;;;;;4.18;1.90;;;;;;;;;;5031826;28;20436;-68
2021/05/10 10:32:17;;;;;;;4.70;2.00;;;;;;;;;;5035720;28;20397;-68
2021/05/10 10:34:48;;;;;;;3.10;1.83;;;;;;;;;;5012583;28;20029;-69
2021/05/10 10:37:17;;;;;;;2.45;1.50;;;;;;;;;;5006122;28;20310;-69
2021/05/10 10:39:51;;;;;;;3.90;2.03;;;;;;;;;;5017670;28;20075;-68
2021/05/10 10:42:30;;;;;;;6.07;2.17;;;;;;;;;;5010741;28;20117;-69
2021/05/10 10:44:58;;;;;;;3.40;1.90;;;;;;;;;;5013745;28;20512;-69
2021/05/10 10:47:45;;;;;;;4.75;2.22;;;;;;;;;;5002048;28;20431;-69
2021/05/10 10:50:13;;;;;;;2.38;1.17;;;;;;;;;;5011882;28;20042;-69
2021/05/10 10:52:47;;;;;;;4.82;1.35;;;;;;;;;;5003184;28;20064;-69
2021/05/10 10:55:14;;;;;;;3.63;1.65;;;;;;;;;;5013213;28;20076;-69
2021/05/10 10:57:42;;;;;;;2.45;1.30;;;;;;;;;;4994959;28;20036;-69
2021/05/10 11:00:10;;;;;;;2.85;0.93;;;;;;;;;;5012126;28;20558;-68
2021/05/10 11:02:44;;;;;;;3.15;1.25;;;;;;;;;;5005561;28;20484;-68
2021/05/10 11:05:11;;;;;;;;;;;;;;;;;;4992937;28;20085;-69
2021/05/10 11:07:47;;;;;;;11.48;1.35;;;;;;;;;;5008534;28;19905;-68
2021/05/10 11:10:34;;;;;;;4.47;1.60;;;;;;;;;;4989412;28;20056;-69
2021/05/10 11:13:01;;;;;;;2.92;1.67;;;;;;;;;;5007084;28;20061;-69
2021/05/10 11:15:34;;;;;;;3.22;1.35;;;;;;;;;;5009947;28;20091;-69
2021/05/10 11:18:03;;;;;;;2.40;1.10;;;;;;;;;;5010438;28;20026;-69
2021/05/10 11:20:40;;;;;;;2.35;1.10;;;;;;;;;;5014688;28;20030;-68
2021/05/10 11:23:25;;;;;;;5.65;1.27;;;;;;;;;;5006129;28;20360;-68
2021/05/10 11:25:54;;;;;;;2.50;1.33;;;;;;;;;;4993601;28;20065;-69
2021/05/10 11:28:27;;;;;;;3.33;1.45;;;;;;;;;;5006359;28;20467;-71
2021/05/10 11:31:04;;;;;;;5.57;2.07;;;;;;;;;;5011408;28;20474;-69
2021/05/10 11:33:49;;;;;;;4.78;2.28;;;;;;;;;;5013319;28;20030;-69
2021/05/10 11:36:25;;;;;;;3.55;2.25;;;;;;;;;;5022077;28;20070;-69
2021/05/10 11:38:53;;;;;;;9.63;4.40;;;;;;;;;;5009032;28;20034;-69
2021/05/10 11:41:27;;;;;;;7.93;3.63;;;;;;;;;;5024263;28;20124;-69
2021/05/10 11:43:58;;;;;;;5.68;3.63;;;;;;;;;;5012332;28;20123;-69
2021/05/10 11:46:35;;;;;;;3.65;2.78;;;;;;;;;;4994773;28;20034;-68
2021/05/10 11:49:02;;;;;;;4.28;2.40;;;;;;;;;;4992877;28;20034;-69
2021/05/10 11:51:30;;;;;;;4.75;2.30;;;;;;;;;;4996309;28;20030;-68
2021/05/10 11:53:58;;;;;;;2.65;1.30;;;;;;;;;;4987091;28;20041;-69
2021/05/10 11:56:29;;;;;;;10.13;1.50;;;;;;;;;;4992894;28;20105;-69
2021/05/10 12:01:36;;;;;;;2.22;1.42;;;;;;;;;;5011784;28;20026;-69
2021/05/10 12:04:17;;;;;;;3.38;1.38;;;;;;;;;;5006353;28;20552;-69
2021/05/10 12:06:44;;;;;;;3.67;1.80;;;;;;;;;;5006745;28;20053;-69
2021/05/10 12:09:30;;;;;;;3.58;1.60;;;;;;;;;;5006318;28;20037;-69
2021/05/10 12:11:57;;;;;;;7.03;2.30;;;;;;;;;;5001242;28;20049;-69
2021/05/10 12:14:24;;;;;;;6.15;1.60;;;;;;;;;;4983297;28;20045;-69
2021/05/10 12:17:01;;;;;;;3.67;1.50;;;;;;;;;;5004379;28;20089;-69
2021/05/10 12:19:48;;;;;;;4.32;1.58;;;;;;;;;;5010409;28;20092;-68
2021/05/10 12:22:15;;;;;;;5.13;1.50;;;;;;;;;;5016673;28;20382;-68
2021/05/10 12:24:55;;;;;;;8.13;1.80;;;;;;;;;;4994206;28;20032;-68
2021/05/10 12:27:23;;;;;;;10.10;6.38;;;;;;;;;;5010344;28;20429;-69
2021/05/10 12:29:51;;;;;;;8.32;3.63;;;;;;;;;;4991734;28;20042;-69
2021/05/10 12:32:18;;;;;;;6.70;3.20;;;;;;;;;;5006164;28;20029;-68
2021/05/10 12:34:45;;;;;;;7.03;3.40;;;;;;;;;;4990750;28;20038;-69
2021/05/10 12:37:13;;;;;;;6.32;3.95;;;;;;;;;;5009748;28;20053;-68
2021/05/10 12:39:40;;;;;;;7.57;3.03;;;;;;;;;;4997910;28;20124;-69
2021/05/10 12:42:13;;;;;;;9.18;3.40;;;;;;;;;;4987745;28;20570;-68
2021/05/10 12:44:40;;;;;;;6.13;2.65;;;;;;;;;;4998971;28;20022;-68
2021/05/10 12:47:08;;;;;;;7.68;2.85;;;;;;;;;;5008136;28;20422;-69
2021/05/10 12:49:43;;;;;;;3.90;2.00;;;;;;;;;;5016593;28;20088;-68
2021/05/10 12:52:10;;;;;;;5.15;2.53;;;;;;;;;;5010216;28;20124;-68
2021/05/10 12:54:44;;;;;;;6.43;3.60;;;;;;;;;;5019289;28;20490;-68
2021/05/10 12:57:11;;;;;;;6.85;4.05;;;;;;;;;;5015717;28;20022;-69
2021/05/10 12:59:48;;;;;;;9.43;4.78;;;;;;;;;;4999910;28;20061;-68
2021/05/10 13:02:19;;;;;;;10.02;5.22;;;;;;;;;;4994323;28;20065;-68
2021/05/10 13:04:47;;;;;;;8.15;4.30;;;;;;;;;;5018014;28;20132;-69
2021/05/10 13:07:14;;;;;;;10.75;3.60;;;;;;;;;;5008070;28;20041;-69
2021/05/10 13:09:41;;;;;;;5.00;2.60;;;;;;;;;;5004333;28;20455;-69
2021/05/10 13:12:12;;;;;;;6.18;2.45;;;;;;;;;;4989931;28;20026;-69
2021/05/10 13:14:51;;;;;;;4.32;2.05;;;;;;;;;;4987354;28;20042;-69
2021/05/10 13:17:53;;;;;;;4.53;2.03;;;;;;;;;;4986912;28;20088;-68
2021/05/10 13:31:52;;;;;;;3.00;1.25;;;;;;;;;;4968664;28;20495;-69
2021/05/10 13:34:31;;;;;;;6.38;1.40;;;;;;;;;;4965559;28;20031;-69
2021/05/10 13:37:07;;;;;;;6.97;1.10;;;;;;;;;;4968443;28;20033;-69
2021/05/10 13:39:34;;;;;;;3.75;1.27;;;;;;;;;;4992376;28;20445;-68
2021/05/10 13:44:48;;;;;;;6.38;1.95;;;;;;;;;;5020213;28;20036;-69
2021/05/10 13:47:15;;;;;;;6.90;1.23;;;;;;;;;;5008657;28;20022;-69
2021/05/10 13:49:43;;;;;;;4.45;1.50;;;;;;;;;;4989882;28;20113;-69
2021/05/10 13:52:11;;;;;;;3.05;1.50;;;;;;;;;;4993787;28;20033;-69
2021/05/10 13:54:38;;;;;;;3.47;0.80;;;;;;;;;;4981512;28;20470;-68
2021/05/10 13:57:05;;;;;;;3.38;0.98;;;;;;;;;;4983803;28;20081;-69
2021/05/10 13:59:33;;;;;;;3.53;1.05;;;;;;;;;;5012316;28;20076;-69
2021/05/10 14:02:00;;;;;;;3.15;1.08;;;;;;;;;;4985699;28;20042;-68
2021/05/10 14:04:27;;;;;;;4.35;1.20;;;;;;;;;;4986213;28;20065;-68
2021/05/10 14:06:55;;;;;;;1.98;0.95;;;;;;;;;;4988378;28;20037;-68
2021/05/10 14:09:22;;;;;;;6.15;1.02;;;;;;;;;;5004623;28;20026;-69
2021/05/10 14:11:49;;;;;;;3.42;1.02;;;;;;;;;;5000987;28;20030;-69
2021/05/10 14:14:16;;;;;;;2.80;1.58;;;;;;;;;;4989513;28;20026;-69
2021/05/10 14:16:44;;;;;;;2.60;1.27;;;;;;;;;;4996719;28;20065;-69
2021/05/10 14:19:19;;;;;;;2.35;1.25;;;;;;;;;;4992838;28;20085;-69
2021/05/10 14:22:02;;;;;;;3.25;1.85;;;;;;;;;;4999184;28;20469;-69
2021/05/10 14:24:32;;;;;;;7.20;2.35;;;;;;;;;;5002846;28;20471;-68
2021/05/10 14:27:04;;;;;;;4.75;2.03;;;;;;;;;;5014280;28;20028;-69
2021/05/10 14:29:31;;;;;;;3.58;2.38;;;;;;;;;;4999979;28;20053;-69
2021/05/10 14:31:58;;;;;;;3.72;2.28;;;;;;;;;;5001795;28;20406;-69
2021/05/10 14:34:25;;;;;;;2.63;2.03;;;;;;;;;;5010170;28;20105;-69
2021/05/10 14:36:53;;;;;;;2.50;1.70;;;;;;;;;;4994565;28;20494;-69
2021/05/10 14:39:20;;;;;;;2.28;1.20;;;;;;;;;;5020002;28;20045;-69
2021/05/10 14:41:47;;;;;;;2.20;1.80;;;;;;;;;;5023465;28;20385;-68
2021/05/10 14:44:14;;;;;;;1.85;1.02;;;;;;;;;;5017253;28;20025;-68
2021/05/10 14:46:42;;;;;;;2.25;1.20;;;;;;;;;;5012039;28;20072;-69
2021/05/10 14:49:10;;;;;;;3.08;1.45;;;;;;;;;;5014515;28;20505;-69
2021/05/10 14:51:37;;;;;;;4.78;1.20;;;;;;;;;;5014443;28;20034;-69
2021/05/10 14:54:05;;;;;;;2.08;0.90;;;;;;;;;;5006830;28;20026;-69
2021/05/10 14:56:32;;;;;;;3.58;1.23;;;;;;;;;;5012388;28;20026;-69
2021/05/10 14:58:59;;;;;;;2.85;1.42;;;;;;;;;;5017835;28;20034;-69
2021/05/10 15:01:27;;;;;;;2.45;1.17;;;;;;;;;;5001088;28;20062;-69
2021/05/10 15:03:54;;;;;;;4.50;1.00;;;;;;;;;;5017346;28;20025;-69
2021/05/10 15:06:21;;;;;;;3.25;1.02;;;;;;;;;;5014557;28;20496;-69
2021/05/10 15:08:48;;;;;;;3.08;1.00;;;;;;;;;;5017907;28;20057;-69
2021/05/10 15:11:15;;;;;;;3.72;1.20;;;;;;;;;;5011442;28;20494;-69
2021/05/10 15:13:43;;;;;;;3.08;1.00;;;;;;;;;;5011216;28;20502;-69
2021/05/10 15:16:11;;;;;;;5.85;1.02;;;;;;;;;;5010579;28;20078;-69
2021/05/10 15:18:38;;;;;;;3.13;0.70;;;;;;;;;;5014531;28;20451;-68